sensor_id;sensor_type;location;lat;lon;timestamp;P1;durP1;ratioP1;P2;durP2;ratioP2
54935;SDS011;40838;50.676;7.838;2023-07-20T00:00:31;3.72;;;3.08;;
54935;SDS011;40838;50.676;7.838;2023-07-20T00:03:11;6.35;;;3.20;;
54935;SDS011;40838;50.676;7.838;2023-07-20T00:05:42;8.55;;;3.88;;
54935;SDS011;40838;50.676;7.838;2023-07-20T00:08:09;12.48;;;3.80;;
54935;SDS011;40838;50.676;7.838;2023-07-20T00:10:41;6.75;;;3.50;;
54935;SDS011;40838;50.676;7.838;2023-07-20T00:13:10;7.03;;;4.05;;
54935;SDS011;40838;50.676;7.838;2023-07-20T00:15:37;8.85;;;3.90;;
54935;SDS011;40838;50.676;7.838;2023-07-20T00:18:05;5.85;;;4.18;;
54935;SDS011;40838;50.676;7.838;2023-07-20T00:20:31;8.68;;;5.47;;
54935;SDS011;40838;50.676;7.838;2023-07-20T00:22:58;7.68;;;3.90;;
54935;SDS011;40838;50.676;7.838;2023-07-20T00:25:25;7.38;;;3.90;;
54935;SDS011;40838;50.676;7.838;2023-07-20T00:27:55;12.75;;;4.10;;
54935;SDS011;40838;50.676;7.838;2023-07-20T00:30:32;7.18;;;3.80;;
54935;SDS011;40838;50.676;7.838;2023-07-20T00:32:59;6.40;;;3.58;;
54935;SDS011;40838;50.676;7.838;2023-07-20T00:35:31;12.90;;;5.18;;
54935;SDS011;40838;50.676;7.838;2023-07-20T00:37:58;7.53;;;4.28;;
54935;SDS011;40838;50.676;7.838;2023-07-20T00:40:25;9.05;;;4.13;;
54935;SDS011;40838;50.676;7.838;2023-07-20T00:42:56;10.30;;;4.18;;
54935;SDS011;40838;50.676;7.838;2023-07-20T00:45:25;8.55;;;4.35;;
54935;SDS011;40838;50.676;7.838;2023-07-20T00:47:52;8.65;;;4.20;;
54935;SDS011;40838;50.676;7.838;2023-07-20T00:50:20;6.75;;;3.97;;
54935;SDS011;40838;50.676;7.838;2023-07-20T00:52:49;6.85;;;3.53;;
54935;SDS011;40838;50.676;7.838;2023-07-20T00:55:17;10.18;;;4.50;;
54935;SDS011;40838;50.676;7.838;2023-07-20T00:57:45;5.70;;;4.00;;
54935;SDS011;40838;50.676;7.838;2023-07-20T01:00:16;8.48;;;4.50;;
54935;SDS011;40838;50.676;7.838;2023-07-20T01:02:44;8.50;;;4.57;;
54935;SDS011;40838;50.676;7.838;2023-07-20T01:05:38;10.98;;;4.97;;
54935;SDS011;40838;50.676;7.838;2023-07-20T01:08:14;10.43;;;3.70;;
54935;SDS011;40838;50.676;7.838;2023-07-20T01:10:50;7.05;;;4.22;;
54935;SDS011;40838;50.676;7.838;2023-07-20T01:13:22;12.88;;;4.47;;
54935;SDS011;40838;50.676;7.838;2023-07-20T01:16:02;7.78;;;4.25;;
54935;SDS011;40838;50.676;7.838;2023-07-20T01:18:29;7.18;;;3.65;;
54935;SDS011;40838;50.676;7.838;2023-07-20T01:20:57;5.47;;;3.72;;
54935;SDS011;40838;50.676;7.838;2023-07-20T01:23:29;6.80;;;3.85;;
54935;SDS011;40838;50.676;7.838;2023-07-20T01:31:45;10.20;;;4.13;;
54935;SDS011;40838;50.676;7.838;2023-07-20T01:34:17;10.98;;;4.78;;
54935;SDS011;40838;50.676;7.838;2023-07-20T01:36:44;8.25;;;3.83;;
54935;SDS011;40838;50.676;7.838;2023-07-20T01:39:14;8.02;;;4.10;;
54935;SDS011;40838;50.676;7.838;2023-07-20T01:41:58;8.50;;;4.80;;
54935;SDS011;40838;50.676;7.838;2023-07-20T01:44:27;11.55;;;4.55;;
54935;SDS011;40838;50.676;7.838;2023-07-20T01:46:56;16.45;;;4.60;;
54935;SDS011;40838;50.676;7.838;2023-07-20T01:49:23;8.02;;;5.68;;
54935;SDS011;40838;50.676;7.838;2023-07-20T01:51:49;7.88;;;4.95;;
54935;SDS011;40838;50.676;7.838;2023-07-20T01:54:16;11.13;;;5.50;;
54935;SDS011;40838;50.676;7.838;2023-07-20T01:56:45;9.75;;;5.30;;
54935;SDS011;40838;50.676;7.838;2023-07-20T01:59:13;12.77;;;5.00;;
54935;SDS011;40838;50.676;7.838;2023-07-20T02:01:42;8.80;;;4.75;;
54935;SDS011;40838;50.676;7.838;2023-07-20T02:04:13;9.55;;;4.90;;
54935;SDS011;40838;50.676;7.838;2023-07-20T02:06:41;13.40;;;5.30;;
54935;SDS011;40838;50.676;7.838;2023-07-20T02:09:10;8.85;;;5.13;;
54935;SDS011;40838;50.676;7.838;2023-07-20T02:11:37;10.23;;;5.35;;
54935;SDS011;40838;50.676;7.838;2023-07-20T02:14:04;8.32;;;4.32;;
54935;SDS011;40838;50.676;7.838;2023-07-20T02:16:30;10.23;;;5.28;;
54935;SDS011;40838;50.676;7.838;2023-07-20T02:18:58;9.02;;;5.20;;
54935;SDS011;40838;50.676;7.838;2023-07-20T02:21:29;11.77;;;5.25;;
54935;SDS011;40838;50.676;7.838;2023-07-20T02:23:57;9.40;;;5.05;;
54935;SDS011;40838;50.676;7.838;2023-07-20T02:26:24;13.20;;;5.22;;
54935;SDS011;40838;50.676;7.838;2023-07-20T02:28:53;14.32;;;5.68;;
54935;SDS011;40838;50.676;7.838;2023-07-20T02:31:20;7.63;;;5.10;;
54935;SDS011;40838;50.676;7.838;2023-07-20T02:33:53;10.02;;;5.65;;
54935;SDS011;40838;50.676;7.838;2023-07-20T02:36:19;10.75;;;6.35;;
54935;SDS011;40838;50.676;7.838;2023-07-20T02:38:51;12.10;;;6.53;;
54935;SDS011;40838;50.676;7.838;2023-07-20T02:41:32;8.32;;;5.60;;
54935;SDS011;40838;50.676;7.838;2023-07-20T02:44:00;7.70;;;5.10;;
54935;SDS011;40838;50.676;7.838;2023-07-20T02:46:28;12.45;;;4.90;;
54935;SDS011;40838;50.676;7.838;2023-07-20T02:48:57;11.35;;;5.72;;
54935;SDS011;40838;50.676;7.838;2023-07-20T02:51:27;9.73;;;5.57;;
54935;SDS011;40838;50.676;7.838;2023-07-20T02:53:58;9.32;;;4.97;;
54935;SDS011;40838;50.676;7.838;2023-07-20T02:56:25;8.30;;;5.60;;
54935;SDS011;40838;50.676;7.838;2023-07-20T02:58:52;10.50;;;6.20;;
54935;SDS011;40838;50.676;7.838;2023-07-20T03:01:19;11.90;;;5.03;;
54935;SDS011;40838;50.676;7.838;2023-07-20T03:03:46;9.45;;;4.82;;
54935;SDS011;40838;50.676;7.838;2023-07-20T03:06:22;14.25;;;5.35;;
54935;SDS011;40838;50.676;7.838;2023-07-20T03:08:49;12.18;;;5.10;;
54935;SDS011;40838;50.676;7.838;2023-07-20T03:11:20;6.90;;;4.55;;
54935;SDS011;40838;50.676;7.838;2023-07-20T03:13:47;9.32;;;4.80;;
54935;SDS011;40838;50.676;7.838;2023-07-20T03:16:17;9.82;;;4.95;;
54935;SDS011;40838;50.676;7.838;2023-07-20T03:18:46;8.43;;;4.63;;
54935;SDS011;40838;50.676;7.838;2023-07-20T03:21:13;8.93;;;4.93;;
54935;SDS011;40838;50.676;7.838;2023-07-20T03:23:40;7.10;;;5.05;;
54935;SDS011;40838;50.676;7.838;2023-07-20T03:26:08;11.82;;;5.72;;
54935;SDS011;40838;50.676;7.838;2023-07-20T03:28:37;10.93;;;6.25;;
54935;SDS011;40838;50.676;7.838;2023-07-20T03:31:10;8.57;;;5.93;;
54935;SDS011;40838;50.676;7.838;2023-07-20T03:33:39;10.48;;;5.35;;
54935;SDS011;40838;50.676;7.838;2023-07-20T03:36:09;10.93;;;5.95;;
54935;SDS011;40838;50.676;7.838;2023-07-20T03:38:36;11.88;;;5.72;;
54935;SDS011;40838;50.676;7.838;2023-07-20T03:41:03;8.68;;;5.30;;
54935;SDS011;40838;50.676;7.838;2023-07-20T03:43:43;8.52;;;5.28;;
54935;SDS011;40838;50.676;7.838;2023-07-20T03:46:15;12.68;;;6.13;;
54935;SDS011;40838;50.676;7.838;2023-07-20T03:48:42;9.63;;;6.05;;
54935;SDS011;40838;50.676;7.838;2023-07-20T03:51:12;10.60;;;5.85;;
54935;SDS011;40838;50.676;7.838;2023-07-20T03:53:40;9.23;;;5.40;;
54935;SDS011;40838;50.676;7.838;2023-07-20T03:56:17;9.55;;;5.35;;
54935;SDS011;40838;50.676;7.838;2023-07-20T03:58:45;7.15;;;5.07;;
54935;SDS011;40838;50.676;7.838;2023-07-20T04:01:12;9.50;;;4.97;;
54935;SDS011;40838;50.676;7.838;2023-07-20T04:03:42;8.63;;;5.80;;
54935;SDS011;40838;50.676;7.838;2023-07-20T04:06:14;12.18;;;6.22;;
54935;SDS011;40838;50.676;7.838;2023-07-20T04:08:42;11.52;;;5.65;;
54935;SDS011;40838;50.676;7.838;2023-07-20T04:11:09;9.90;;;5.03;;
54935;SDS011;40838;50.676;7.838;2023-07-20T04:13:36;7.82;;;5.15;;
54935;SDS011;40838;50.676;7.838;2023-07-20T04:16:04;7.95;;;4.75;;
54935;SDS011;40838;50.676;7.838;2023-07-20T04:18:37;10.80;;;5.40;;
54935;SDS011;40838;50.676;7.838;2023-07-20T04:21:04;9.98;;;4.85;;
54935;SDS011;40838;50.676;7.838;2023-07-20T04:23:32;10.30;;;5.00;;
54935;SDS011;40838;50.676;7.838;2023-07-20T04:26:00;10.15;;;5.05;;
54935;SDS011;40838;50.676;7.838;2023-07-20T04:28:27;8.65;;;5.15;;
54935;SDS011;40838;50.676;7.838;2023-07-20T04:31:11;7.07;;;4.75;;
54935;SDS011;40838;50.676;7.838;2023-07-20T04:33:42;7.88;;;4.85;;
54935;SDS011;40838;50.676;7.838;2023-07-20T04:36:10;7.90;;;4.97;;
54935;SDS011;40838;50.676;7.838;2023-07-20T04:38:39;11.02;;;4.80;;
54935;SDS011;40838;50.676;7.838;2023-07-20T04:41:16;10.57;;;4.82;;
54935;SDS011;40838;50.676;7.838;2023-07-20T04:43:46;8.57;;;4.68;;
54935;SDS011;40838;50.676;7.838;2023-07-20T04:46:19;8.57;;;4.55;;
54935;SDS011;40838;50.676;7.838;2023-07-20T04:48:47;8.95;;;4.55;;
54935;SDS011;40838;50.676;7.838;2023-07-20T04:51:14;10.63;;;4.72;;
54935;SDS011;40838;50.676;7.838;2023-07-20T04:53:44;10.02;;;5.00;;
54935;SDS011;40838;50.676;7.838;2023-07-20T04:56:17;11.65;;;4.70;;
54935;SDS011;40838;50.676;7.838;2023-07-20T04:58:45;15.90;;;4.97;;
54935;SDS011;40838;50.676;7.838;2023-07-20T05:01:12;10.32;;;5.05;;
54935;SDS011;40838;50.676;7.838;2023-07-20T05:03:40;8.45;;;4.43;;
54935;SDS011;40838;50.676;7.838;2023-07-20T05:06:09;9.43;;;4.47;;
54935;SDS011;40838;50.676;7.838;2023-07-20T05:08:36;8.70;;;4.47;;
54935;SDS011;40838;50.676;7.838;2023-07-20T05:11:04;9.48;;;4.28;;
54935;SDS011;40838;50.676;7.838;2023-07-20T05:13:35;7.90;;;4.50;;
54935;SDS011;40838;50.676;7.838;2023-07-20T05:16:08;5.55;;;3.90;;
54935;SDS011;40838;50.676;7.838;2023-07-20T05:18:35;6.28;;;3.97;;
54935;SDS011;40838;50.676;7.838;2023-07-20T05:21:06;7.25;;;4.07;;
54935;SDS011;40838;50.676;7.838;2023-07-20T05:23:34;9.65;;;4.47;;
54935;SDS011;40838;50.676;7.838;2023-07-20T05:26:02;8.45;;;4.43;;
54935;SDS011;40838;50.676;7.838;2023-07-20T05:28:29;11.57;;;3.90;;
54935;SDS011;40838;50.676;7.838;2023-07-20T05:30:56;8.18;;;3.95;;
54935;SDS011;40838;50.676;7.838;2023-07-20T05:33:24;8.65;;;3.90;;
54935;SDS011;40838;50.676;7.838;2023-07-20T05:35:51;8.25;;;4.50;;
54935;SDS011;40838;50.676;7.838;2023-07-20T05:38:26;8.77;;;4.50;;
54935;SDS011;40838;50.676;7.838;2023-07-20T05:41:07;4.68;;;3.28;;
54935;SDS011;40838;50.676;7.838;2023-07-20T05:43:35;10.18;;;3.97;;
54935;SDS011;40838;50.676;7.838;2023-07-20T05:46:02;7.95;;;3.75;;
54935;SDS011;40838;50.676;7.838;2023-07-20T05:48:30;9.63;;;3.78;;
54935;SDS011;40838;50.676;7.838;2023-07-20T05:50:59;8.77;;;3.83;;
54935;SDS011;40838;50.676;7.838;2023-07-20T05:53:30;7.22;;;3.67;;
54935;SDS011;40838;50.676;7.838;2023-07-20T05:55:59;9.80;;;3.47;;
54935;SDS011;40838;50.676;7.838;2023-07-20T05:58:40;12.60;;;4.00;;
54935;SDS011;40838;50.676;7.838;2023-07-20T06:01:07;9.98;;;4.28;;
54935;SDS011;40838;50.676;7.838;2023-07-20T06:03:38;14.55;;;5.40;;
54935;SDS011;40838;50.676;7.838;2023-07-20T06:06:04;19.33;;;5.15;;
54935;SDS011;40838;50.676;7.838;2023-07-20T06:08:34;8.02;;;4.38;;
54935;SDS011;40838;50.676;7.838;2023-07-20T06:11:01;11.73;;;5.13;;
54935;SDS011;40838;50.676;7.838;2023-07-20T06:13:28;17.02;;;6.10;;
54935;SDS011;40838;50.676;7.838;2023-07-20T06:16:00;9.98;;;5.22;;
54935;SDS011;40838;50.676;7.838;2023-07-20T06:18:29;12.45;;;5.47;;
54935;SDS011;40838;50.676;7.838;2023-07-20T06:20:58;12.45;;;8.57;;
54935;SDS011;40838;50.676;7.838;2023-07-20T06:23:24;14.93;;;9.02;;
54935;SDS011;40838;50.676;7.838;2023-07-20T06:25:53;20.95;;;11.25;;
54935;SDS011;40838;50.676;7.838;2023-07-20T06:28:20;16.13;;;8.98;;
54935;SDS011;40838;50.676;7.838;2023-07-20T06:30:47;17.10;;;9.35;;
54935;SDS011;40838;50.676;7.838;2023-07-20T06:33:16;25.25;;;10.10;;
54935;SDS011;40838;50.676;7.838;2023-07-20T06:35:43;21.40;;;11.73;;
54935;SDS011;40838;50.676;7.838;2023-07-20T06:38:11;20.52;;;11.88;;
54935;SDS011;40838;50.676;7.838;2023-07-20T06:40:48;18.23;;;12.65;;
54935;SDS011;40838;50.676;7.838;2023-07-20T06:43:16;18.88;;;12.57;;
54935;SDS011;40838;50.676;7.838;2023-07-20T06:45:43;16.65;;;12.10;;
54935;SDS011;40838;50.676;7.838;2023-07-20T06:48:11;17.50;;;11.23;;
54935;SDS011;40838;50.676;7.838;2023-07-20T06:50:39;20.15;;;12.38;;
54935;SDS011;40838;50.676;7.838;2023-07-20T06:53:07;18.35;;;10.60;;
54935;SDS011;40838;50.676;7.838;2023-07-20T06:55:34;16.10;;;10.32;;
54935;SDS011;40838;50.676;7.838;2023-07-20T06:58:00;14.82;;;9.75;;
54935;SDS011;40838;50.676;7.838;2023-07-20T07:00:29;15.60;;;9.88;;
54935;SDS011;40838;50.676;7.838;2023-07-20T07:02:56;14.35;;;9.65;;
54935;SDS011;40838;50.676;7.838;2023-07-20T07:05:23;13.38;;;9.73;;
54935;SDS011;40838;50.676;7.838;2023-07-20T07:07:50;16.10;;;8.63;;
54935;SDS011;40838;50.676;7.838;2023-07-20T07:10:19;12.98;;;8.88;;
54935;SDS011;40838;50.676;7.838;2023-07-20T07:13:01;11.52;;;8.85;;
54935;SDS011;40838;50.676;7.838;2023-07-20T07:15:33;16.45;;;9.15;;
54935;SDS011;40838;50.676;7.838;2023-07-20T07:18:02;16.05;;;9.82;;
54935;SDS011;40838;50.676;7.838;2023-07-20T07:20:29;12.40;;;8.88;;
54935;SDS011;40838;50.676;7.838;2023-07-20T07:22:56;8.02;;;6.70;;
54935;SDS011;40838;50.676;7.838;2023-07-20T07:25:23;14.18;;;7.45;;
54935;SDS011;40838;50.676;7.838;2023-07-20T07:27:58;10.05;;;6.70;;
54935;SDS011;40838;50.676;7.838;2023-07-20T07:30:26;12.00;;;5.95;;
54935;SDS011;40838;50.676;7.838;2023-07-20T07:32:55;10.30;;;5.75;;
54935;SDS011;40838;50.676;7.838;2023-07-20T07:35:27;7.57;;;5.28;;
54935;SDS011;40838;50.676;7.838;2023-07-20T07:37:55;9.13;;;5.22;;
54935;SDS011;40838;50.676;7.838;2023-07-20T07:40:27;10.32;;;5.85;;
54935;SDS011;40838;50.676;7.838;2023-07-20T07:42:55;8.98;;;6.32;;
54935;SDS011;40838;50.676;7.838;2023-07-20T07:45:21;12.68;;;6.07;;
54935;SDS011;40838;50.676;7.838;2023-07-20T07:47:50;14.85;;;5.50;;
54935;SDS011;40838;50.676;7.838;2023-07-20T07:50:18;11.57;;;5.22;;
54935;SDS011;40838;50.676;7.838;2023-07-20T07:52:49;10.98;;;4.65;;
54935;SDS011;40838;50.676;7.838;2023-07-20T07:55:16;7.57;;;4.90;;
54935;SDS011;40838;50.676;7.838;2023-07-20T07:57:43;7.85;;;4.30;;
54935;SDS011;40838;50.676;7.838;2023-07-20T08:00:13;4.93;;;3.88;;
54935;SDS011;40838;50.676;7.838;2023-07-20T08:02:40;7.35;;;3.95;;
54935;SDS011;40838;50.676;7.838;2023-07-20T08:05:08;9.50;;;4.75;;
54935;SDS011;40838;50.676;7.838;2023-07-20T08:07:36;10.07;;;4.82;;
54935;SDS011;40838;50.676;7.838;2023-07-20T08:10:09;10.23;;;5.18;;
54935;SDS011;40838;50.676;7.838;2023-07-20T08:12:36;9.13;;;5.32;;
54935;SDS011;40838;50.676;7.838;2023-07-20T08:15:03;8.98;;;5.00;;
54935;SDS011;40838;50.676;7.838;2023-07-20T08:17:31;8.30;;;4.40;;
54935;SDS011;40838;50.676;7.838;2023-07-20T08:20:01;10.05;;;5.00;;
54935;SDS011;40838;50.676;7.838;2023-07-20T08:22:30;6.82;;;4.50;;
54935;SDS011;40838;50.676;7.838;2023-07-20T08:24:58;6.82;;;3.92;;
54935;SDS011;40838;50.676;7.838;2023-07-20T08:27:29;6.57;;;4.38;;
54935;SDS011;40838;50.676;7.838;2023-07-20T08:29:56;5.72;;;3.90;;
54935;SDS011;40838;50.676;7.838;2023-07-20T08:32:23;9.13;;;4.40;;
54935;SDS011;40838;50.676;7.838;2023-07-20T08:34:50;9.18;;;4.28;;
54935;SDS011;40838;50.676;7.838;2023-07-20T08:37:16;11.52;;;4.43;;
54935;SDS011;40838;50.676;7.838;2023-07-20T08:39:44;6.53;;;4.15;;
54935;SDS011;40838;50.676;7.838;2023-07-20T08:42:16;5.93;;;4.03;;
54935;SDS011;40838;50.676;7.838;2023-07-20T08:44:43;7.88;;;3.90;;
54935;SDS011;40838;50.676;7.838;2023-07-20T08:47:14;4.22;;;3.22;;
54935;SDS011;40838;50.676;7.838;2023-07-20T08:49:43;4.72;;;3.10;;
54935;SDS011;40838;50.676;7.838;2023-07-20T08:52:13;6.55;;;3.50;;
54935;SDS011;40838;50.676;7.838;2023-07-20T08:54:42;6.88;;;3.92;;
54935;SDS011;40838;50.676;7.838;2023-07-20T08:57:10;9.65;;;3.30;;
54935;SDS011;40838;50.676;7.838;2023-07-20T08:59:41;9.60;;;3.95;;
54935;SDS011;40838;50.676;7.838;2023-07-20T09:02:09;4.05;;;3.00;;
54935;SDS011;40838;50.676;7.838;2023-07-20T09:04:43;5.20;;;2.90;;
54935;SDS011;40838;50.676;7.838;2023-07-20T09:07:14;5.88;;;3.47;;
54935;SDS011;40838;50.676;7.838;2023-07-20T09:09:42;8.07;;;3.70;;
54935;SDS011;40838;50.676;7.838;2023-07-20T09:12:13;5.13;;;3.70;;
54935;SDS011;40838;50.676;7.838;2023-07-20T09:14:43;5.80;;;3.83;;
54935;SDS011;40838;50.676;7.838;2023-07-20T09:17:12;6.32;;;3.72;;
54935;SDS011;40838;50.676;7.838;2023-07-20T09:19:45;7.07;;;3.80;;
54935;SDS011;40838;50.676;7.838;2023-07-20T09:22:12;7.70;;;4.18;;
54935;SDS011;40838;50.676;7.838;2023-07-20T09:24:39;4.47;;;3.38;;
54935;SDS011;40838;50.676;7.838;2023-07-20T09:27:07;7.05;;;3.65;;
54935;SDS011;40838;50.676;7.838;2023-07-20T09:29:45;4.72;;;3.70;;
54935;SDS011;40838;50.676;7.838;2023-07-20T09:32:15;8.15;;;4.15;;
54935;SDS011;40838;50.676;7.838;2023-07-20T09:34:45;8.27;;;4.60;;
54935;SDS011;40838;50.676;7.838;2023-07-20T09:37:19;4.78;;;3.25;;
54935;SDS011;40838;50.676;7.838;2023-07-20T09:39:47;3.90;;;3.05;;
54935;SDS011;40838;50.676;7.838;2023-07-20T09:42:14;5.38;;;3.65;;
54935;SDS011;40838;50.676;7.838;2023-07-20T09:44:44;6.53;;;3.30;;
54935;SDS011;40838;50.676;7.838;2023-07-20T09:47:12;5.93;;;3.25;;
54935;SDS011;40838;50.676;7.838;2023-07-20T09:49:58;7.38;;;2.80;;
54935;SDS011;40838;50.676;7.838;2023-07-20T09:52:41;3.40;;;2.50;;
54935;SDS011;40838;50.676;7.838;2023-07-20T09:55:19;5.25;;;3.15;;
54935;SDS011;40838;50.676;7.838;2023-07-20T09:57:50;4.13;;;2.53;;
54935;SDS011;40838;50.676;7.838;2023-07-20T10:00:22;2.55;;;2.28;;
54935;SDS011;40838;50.676;7.838;2023-07-20T10:02:57;3.38;;;2.70;;
54935;SDS011;40838;50.676;7.838;2023-07-20T10:05:29;4.18;;;2.75;;
54935;SDS011;40838;50.676;7.838;2023-07-20T10:08:00;2.63;;;2.30;;
54935;SDS011;40838;50.676;7.838;2023-07-20T10:10:30;4.28;;;1.77;;
54935;SDS011;40838;50.676;7.838;2023-07-20T10:13:00;3.50;;;2.53;;
54935;SDS011;40838;50.676;7.838;2023-07-20T10:15:30;4.32;;;3.50;;
54935;SDS011;40838;50.676;7.838;2023-07-20T10:18:02;5.60;;;3.50;;
54935;SDS011;40838;50.676;7.838;2023-07-20T10:20:36;5.10;;;3.15;;
54935;SDS011;40838;50.676;7.838;2023-07-20T10:23:06;4.00;;;3.05;;
54935;SDS011;40838;50.676;7.838;2023-07-20T10:25:34;3.17;;;2.60;;
54935;SDS011;40838;50.676;7.838;2023-07-20T10:28:04;3.03;;;2.20;;
54935;SDS011;40838;50.676;7.838;2023-07-20T10:30:33;3.97;;;2.30;;
54935;SDS011;40838;50.676;7.838;2023-07-20T10:33:01;3.13;;;2.20;;
54935;SDS011;40838;50.676;7.838;2023-07-20T10:35:30;2.22;;;2.03;;
54935;SDS011;40838;50.676;7.838;2023-07-20T10:38:00;3.38;;;2.20;;
54935;SDS011;40838;50.676;7.838;2023-07-20T10:40:31;4.88;;;2.70;;
54935;SDS011;40838;50.676;7.838;2023-07-20T10:43:01;2.60;;;2.13;;
54935;SDS011;40838;50.676;7.838;2023-07-20T10:45:34;7.07;;;2.70;;
54935;SDS011;40838;50.676;7.838;2023-07-20T10:48:05;6.57;;;2.67;;
54935;SDS011;40838;50.676;7.838;2023-07-20T10:53:51;5.22;;;2.10;;
54935;SDS011;40838;50.676;7.838;2023-07-20T10:56:28;3.72;;;1.65;;
54935;SDS011;40838;50.676;7.838;2023-07-20T10:59:16;2.80;;;2.28;;
54935;SDS011;40838;50.676;7.838;2023-07-20T11:04:40;2.30;;;2.10;;
54935;SDS011;40838;50.676;7.838;2023-07-20T11:07:09;3.92;;;2.40;;
54935;SDS011;40838;50.676;7.838;2023-07-20T11:09:38;2.60;;;2.40;;
54935;SDS011;40838;50.676;7.838;2023-07-20T11:12:09;2.95;;;2.30;;
54935;SDS011;40838;50.676;7.838;2023-07-20T11:14:40;2.60;;;2.40;;
54935;SDS011;40838;50.676;7.838;2023-07-20T11:17:12;3.22;;;2.42;;
54935;SDS011;40838;50.676;7.838;2023-07-20T11:19:41;2.85;;;2.45;;
54935;SDS011;40838;50.676;7.838;2023-07-20T11:22:08;2.72;;;2.30;;
54935;SDS011;40838;50.676;7.838;2023-07-20T11:24:39;3.60;;;2.22;;
54935;SDS011;40838;50.676;7.838;2023-07-20T11:27:11;2.72;;;2.40;;
54935;SDS011;40838;50.676;7.838;2023-07-20T11:29:39;2.90;;;2.60;;
54935;SDS011;40838;50.676;7.838;2023-07-20T11:32:08;3.72;;;2.85;;
54935;SDS011;40838;50.676;7.838;2023-07-20T11:34:37;2.88;;;2.47;;
54935;SDS011;40838;50.676;7.838;2023-07-20T11:37:05;5.22;;;2.20;;
54935;SDS011;40838;50.676;7.838;2023-07-20T11:39:32;2.50;;;1.85;;
54935;SDS011;40838;50.676;7.838;2023-07-20T11:41:59;4.32;;;2.08;;
54935;SDS011;40838;50.676;7.838;2023-07-20T11:44:26;4.20;;;2.50;;
54935;SDS011;40838;50.676;7.838;2023-07-20T11:47:01;5.60;;;2.50;;
54935;SDS011;40838;50.676;7.838;2023-07-20T11:49:56;8.43;;;2.67;;
54935;SDS011;40838;50.676;7.838;2023-07-20T11:52:29;3.90;;;2.38;;
54935;SDS011;40838;50.676;7.838;2023-07-20T11:54:57;4.63;;;2.35;;
54935;SDS011;40838;50.676;7.838;2023-07-20T11:57:26;3.95;;;2.28;;
54935;SDS011;40838;50.676;7.838;2023-07-20T11:59:55;2.33;;;2.13;;
54935;SDS011;40838;50.676;7.838;2023-07-20T12:02:25;2.70;;;2.20;;
54935;SDS011;40838;50.676;7.838;2023-07-20T12:04:53;5.20;;;2.40;;
54935;SDS011;40838;50.676;7.838;2023-07-20T12:07:25;4.28;;;2.35;;
54935;SDS011;40838;50.676;7.838;2023-07-20T12:10:03;3.72;;;2.50;;
54935;SDS011;40838;50.676;7.838;2023-07-20T12:12:32;4.75;;;1.67;;
54935;SDS011;40838;50.676;7.838;2023-07-20T12:15:12;1.33;;;1.23;;
54935;SDS011;40838;50.676;7.838;2023-07-20T12:17:41;2.45;;;1.50;;
54935;SDS011;40838;50.676;7.838;2023-07-20T12:20:13;4.95;;;2.05;;
54935;SDS011;40838;50.676;7.838;2023-07-20T12:22:55;1.60;;;1.50;;
54935;SDS011;40838;50.676;7.838;2023-07-20T12:25:31;1.65;;;1.40;;
54935;SDS011;40838;50.676;7.838;2023-07-20T12:28:01;2.13;;;1.50;;
54935;SDS011;40838;50.676;7.838;2023-07-20T12:30:29;1.98;;;1.63;;
54935;SDS011;40838;50.676;7.838;2023-07-20T12:32:56;3.42;;;1.65;;
54935;SDS011;40838;50.676;7.838;2023-07-20T12:35:22;2.78;;;1.52;;
54935;SDS011;40838;50.676;7.838;2023-07-20T12:37:49;1.08;;;1.08;;
54935;SDS011;40838;50.676;7.838;2023-07-20T12:40:19;5.00;;;1.73;;
54935;SDS011;40838;50.676;7.838;2023-07-20T12:42:48;1.98;;;1.15;;
54935;SDS011;40838;50.676;7.838;2023-07-20T12:45:31;2.88;;;1.90;;
54935;SDS011;40838;50.676;7.838;2023-07-20T12:47:58;4.65;;;1.60;;
54935;SDS011;40838;50.676;7.838;2023-07-20T12:50:24;2.03;;;1.15;;
54935;SDS011;40838;50.676;7.838;2023-07-20T12:52:51;3.03;;;1.33;;
54935;SDS011;40838;50.676;7.838;2023-07-20T12:55:20;2.75;;;1.40;;
54935;SDS011;40838;50.676;7.838;2023-07-20T12:57:48;3.80;;;1.40;;
54935;SDS011;40838;50.676;7.838;2023-07-20T13:00:15;2.35;;;1.17;;
54935;SDS011;40838;50.676;7.838;2023-07-20T13:02:45;2.75;;;1.30;;
54935;SDS011;40838;50.676;7.838;2023-07-20T13:05:12;4.28;;;1.85;;
54935;SDS011;40838;50.676;7.838;2023-07-20T13:07:41;3.05;;;1.58;;
54935;SDS011;40838;50.676;7.838;2023-07-20T13:10:11;2.47;;;1.60;;
54935;SDS011;40838;50.676;7.838;2023-07-20T13:12:39;3.17;;;1.63;;
54935;SDS011;40838;50.676;7.838;2023-07-20T13:15:07;1.90;;;1.33;;
54935;SDS011;40838;50.676;7.838;2023-07-20T13:17:38;2.08;;;1.35;;
54935;SDS011;40838;50.676;7.838;2023-07-20T13:20:06;6.40;;;1.55;;
54935;SDS011;40838;50.676;7.838;2023-07-20T13:22:36;7.22;;;2.35;;
54935;SDS011;40838;50.676;7.838;2023-07-20T13:25:04;3.97;;;1.50;;
54935;SDS011;40838;50.676;7.838;2023-07-20T13:27:35;3.35;;;1.55;;
54935;SDS011;40838;50.676;7.838;2023-07-20T13:30:06;3.00;;;1.80;;
54935;SDS011;40838;50.676;7.838;2023-07-20T13:32:35;2.45;;;1.55;;
54935;SDS011;40838;50.676;7.838;2023-07-20T13:35:03;1.40;;;1.30;;
54935;SDS011;40838;50.676;7.838;2023-07-20T13:37:30;2.70;;;1.67;;
54935;SDS011;40838;50.676;7.838;2023-07-20T13:39:57;4.00;;;1.60;;
54935;SDS011;40838;50.676;7.838;2023-07-20T13:42:24;2.70;;;1.50;;
54935;SDS011;40838;50.676;7.838;2023-07-20T13:44:51;1.80;;;1.60;;
54935;SDS011;40838;50.676;7.838;2023-07-20T13:47:19;1.88;;;1.40;;
54935;SDS011;40838;50.676;7.838;2023-07-20T13:49:46;2.30;;;1.60;;
54935;SDS011;40838;50.676;7.838;2023-07-20T13:52:18;5.30;;;1.88;;
54935;SDS011;40838;50.676;7.838;2023-07-20T13:54:55;2.90;;;1.95;;
54935;SDS011;40838;50.676;7.838;2023-07-20T13:57:22;2.20;;;1.40;;
54935;SDS011;40838;50.676;7.838;2023-07-20T13:59:49;4.07;;;1.65;;
54935;SDS011;40838;50.676;7.838;2023-07-20T14:02:16;5.00;;;1.95;;
54935;SDS011;40838;50.676;7.838;2023-07-20T14:04:44;3.45;;;1.80;;
54935;SDS011;40838;50.676;7.838;2023-07-20T14:07:11;5.78;;;1.70;;
54935;SDS011;40838;50.676;7.838;2023-07-20T14:09:38;2.35;;;1.48;;
54935;SDS011;40838;50.676;7.838;2023-07-20T14:12:06;3.20;;;1.80;;
54935;SDS011;40838;50.676;7.838;2023-07-20T14:14:33;1.58;;;1.30;;
54935;SDS011;40838;50.676;7.838;2023-07-20T14:17:00;3.08;;;1.30;;
54935;SDS011;40838;50.676;7.838;2023-07-20T14:19:28;1.40;;;1.30;;
54935;SDS011;40838;50.676;7.838;2023-07-20T14:21:56;1.85;;;1.10;;
54935;SDS011;40838;50.676;7.838;2023-07-20T14:24:24;1.83;;;1.20;;
54935;SDS011;40838;50.676;7.838;2023-07-20T14:26:51;2.13;;;1.42;;
54935;SDS011;40838;50.676;7.838;2023-07-20T14:29:19;2.25;;;1.40;;
54935;SDS011;40838;50.676;7.838;2023-07-20T14:31:46;2.75;;;1.33;;
54935;SDS011;40838;50.676;7.838;2023-07-20T14:34:16;3.55;;;1.30;;
54935;SDS011;40838;50.676;7.838;2023-07-20T14:36:44;3.25;;;1.20;;
54935;SDS011;40838;50.676;7.838;2023-07-20T14:39:14;5.80;;;1.65;;
54935;SDS011;40838;50.676;7.838;2023-07-20T14:41:43;3.53;;;1.30;;
54935;SDS011;40838;50.676;7.838;2023-07-20T14:44:09;4.32;;;1.25;;
54935;SDS011;40838;50.676;7.838;2023-07-20T14:46:36;5.10;;;1.17;;
54935;SDS011;40838;50.676;7.838;2023-07-20T14:49:05;4.85;;;1.50;;
54935;SDS011;40838;50.676;7.838;2023-07-20T14:51:32;1.50;;;1.40;;
54935;SDS011;40838;50.676;7.838;2023-07-20T14:54:07;2.88;;;1.50;;
54935;SDS011;40838;50.676;7.838;2023-07-20T14:56:35;1.90;;;1.25;;
54935;SDS011;40838;50.676;7.838;2023-07-20T14:59:04;1.23;;;1.13;;
54935;SDS011;40838;50.676;7.838;2023-07-20T15:01:33;1.70;;;1.20;;
54935;SDS011;40838;50.676;7.838;2023-07-20T15:04:00;1.45;;;1.33;;
54935;SDS011;40838;50.676;7.838;2023-07-20T15:06:27;3.28;;;1.20;;
54935;SDS011;40838;50.676;7.838;2023-07-20T15:08:55;3.13;;;1.38;;